Time;durP1;ratioP1;P1;durP2;ratioP2;P2;SDS_P1;SDS_P2;PMS_P1;PMS_P2;Temp;Humidity;BMP_temperature;BMP_pressure;BME280_temperature;BME280_humidity;BME280_pressure;Samples;Min_cycle;Max_cycle;Signal;HPM_P1;HPM_P2
2022/03/20 00:00:29;;;;;;;22.30;15.67;;;5.50;59.70;;;;;;5003156;28;20665;-87
2022/03/20 00:02:55;;;;;;;23.83;15.80;;;5.40;59.90;;;;;;5028037;28;20239;-93
2022/03/20 00:05:21;;;;;;;22.63;15.37;;;5.40;60.80;;;;;;5013673;28;20204;-91
2022/03/20 00:07:46;;;;;;;23.47;16.57;;;5.50;60.90;;;;;;5025506;28;20253;-89
2022/03/20 00:10:14;;;;;;;28.83;16.23;;;5.40;60.40;;;;;;5018472;28;20227;-89
2022/03/20 00:12:40;;;;;;;23.63;17.00;;;5.40;60.80;;;;;;5023777;28;20318;-89
2022/03/20 00:15:07;;;;;;;22.80;14.97;;;5.50;60.40;;;;;;5017301;28;20204;-88
2022/03/20 00:17:33;;;;;;;17.37;14.37;;;5.50;59.80;;;;;;5021779;28;20194;-89
2022/03/20 00:19:59;;;;;;;23.37;15.23;;;5.50;59.20;;;;;;5023901;28;20337;-84
2022/03/20 00:22:25;;;;;;;21.40;16.63;;;5.40;59.30;;;;;;5029355;28;20231;-85
2022/03/20 00:24:50;;;;;;;20.67;15.53;;;5.30;59.20;;;;;;5012670;28;20200;-84
2022/03/20 00:27:16;;;;;;;26.00;16.37;;;5.30;59.30;;;;;;5024767;28;20202;-82
2022/03/20 00:29:42;;;;;;;20.50;14.40;;;5.40;59.30;;;;;;5021173;28;20183;-82
2022/03/20 00:32:10;;;;;;;23.47;15.63;;;5.40;59.10;;;;;;5019495;28;20262;-80
2022/03/20 00:34:36;;;;;;;22.73;15.33;;;5.30;59.00;;;;;;4994234;28;20280;-79
2022/03/20 00:37:02;;;;;;;22.17;15.57;;;5.40;59.50;;;;;;5017125;28;20679;-84
2022/03/20 00:39:28;;;;;;;22.57;16.30;;;5.30;59.20;;;;;;5021013;28;20187;-80
2022/03/20 00:41:53;;;;;;;23.93;15.87;;;5.40;59.00;;;;;;5007762;28;20228;-86
2022/03/20 00:44:18;;;;;;;23.07;15.03;;;5.30;58.60;;;;;;5013186;28;20194;-85
2022/03/20 00:46:44;;;;;;;21.07;16.80;;;5.20;58.90;;;;;;5014854;28;20226;-85
2022/03/20 00:49:10;;;;;;;21.17;14.77;;;5.20;59.10;;;;;;5015377;28;20229;-72
2022/03/20 00:51:36;;;;;;;22.70;15.47;;;5.10;58.90;;;;;;4991102;28;20303;-70
2022/03/20 00:54:01;;;;;;;26.10;17.57;;;5.10;58.80;;;;;;5019265;28;20184;-75
2022/03/20 00:56:27;;;;;;;23.20;15.13;;;5.10;58.90;;;;;;5014233;28;20685;-77
2022/03/20 00:58:52;;;;;;;22.50;17.03;;;5.10;58.90;;;;;;5012871;28;20302;-80
2022/03/20 01:01:18;;;;;;;21.30;15.27;;;5.20;58.80;;;;;;5017875;28;20199;-66
2022/03/20 01:03:44;;;;;;;23.80;16.00;;;5.00;58.80;;;;;;5011047;28;20207;-64
2022/03/20 01:06:11;;;;;;;24.77;16.07;;;5.00;59.20;;;;;;5016312;28;20715;-66
2022/03/20 01:08:38;;;;;;;22.00;14.97;;;5.00;59.00;;;;;;4992357;28;20203;-66
2022/03/20 01:11:07;;;;;;;18.63;14.17;;;5.10;58.50;;;;;;5015448;28;20191;-67
2022/03/20 01:13:34;;;;;;;18.00;13.90;;;5.20;58.10;;;;;;5007928;28;20204;-64
2022/03/20 01:15:59;;;;;;;20.73;14.77;;;5.30;57.70;;;;;;5010728;28;20199;-63
2022/03/20 01:18:25;;;;;;;21.87;14.90;;;5.30;57.90;;;;;;5004444;28;20302;-65
2022/03/20 01:20:53;;;;;;;20.47;14.73;;;5.30;58.00;;;;;;5013387;28;20187;-64
2022/03/20 01:23:21;;;;;;;21.97;14.43;;;5.30;57.40;;;;;;5007267;28;20273;-65
2022/03/20 01:25:47;;;;;;;17.93;14.57;;;5.20;57.30;;;;;;5011858;28;20228;-66
2022/03/20 01:28:12;;;;;;;20.67;15.60;;;5.20;57.10;;;;;;5016652;28;20294;-66
2022/03/20 01:30:38;;;;;;;16.97;13.67;;;5.10;57.20;;;;;;5007966;28;20781;-67
2022/03/20 01:33:04;;;;;;;18.87;14.07;;;5.20;57.20;;;;;;5003642;28;21069;-66
2022/03/20 01:35:30;;;;;;;30.20;15.40;;;5.10;57.70;;;;;;5004489;28;20243;-65
2022/03/20 01:37:55;;;;;;;19.83;14.87;;;5.10;57.20;;;;;;5005327;28;20212;-65
2022/03/20 01:40:21;;;;;;;30.80;15.50;;;5.00;57.20;;;;;;5009206;28;20204;-66
2022/03/20 01:42:48;;;;;;;18.67;13.40;;;5.00;57.60;;;;;;5002996;28;20203;-66
2022/03/20 01:45:22;;;;;;;21.20;14.77;;;5.00;56.90;;;;;;5011805;28;20678;-66
2022/03/20 01:47:49;;;;;;;19.60;14.73;;;5.00;57.30;;;;;;5014383;28;20800;-66
2022/03/20 01:50:19;;;;;;;19.00;12.87;;;5.00;57.00;;;;;;5020295;28;20195;-66
2022/03/20 01:52:46;;;;;;;24.07;14.97;;;4.90;56.80;;;;;;5012381;28;20208;-67
2022/03/20 01:55:11;;;;;;;23.37;13.33;;;5.00;57.00;;;;;;5008889;28;20245;-67
2022/03/20 01:57:39;;;;;;;19.67;14.60;;;5.00;56.80;;;;;;5006594;28;20193;-67
2022/03/20 02:00:07;;;;;;;23.00;15.27;;;5.00;57.20;;;;;;5008797;28;20222;-67
2022/03/20 02:02:32;;;;;;;25.87;14.73;;;4.90;57.00;;;;;;5015448;28;20212;-66
2022/03/20 02:04:58;;;;;;;20.17;14.67;;;4.90;57.30;;;;;;5013354;28;20219;-67
2022/03/20 02:07:25;;;;;;;22.77;14.13;;;4.70;57.60;;;;;;4990371;28;20212;-67
2022/03/20 02:09:51;;;;;;;24.27;14.60;;;4.70;57.90;;;;;;5020618;28;20180;-67
2022/03/20 02:12:17;;;;;;;21.30;14.57;;;4.60;58.30;;;;;;5011332;28;20196;-67
2022/03/20 02:14:43;;;;;;;21.20;14.43;;;4.50;58.40;;;;;;5022880;28;20183;-66
2022/03/20 02:17:12;;;;;;;25.07;15.40;;;4.50;58.60;;;;;;5014488;28;20203;-67
2022/03/20 02:19:39;;;;;;;20.03;14.10;;;4.50;58.70;;;;;;5011614;28;20202;-68
2022/03/20 02:22:06;;;;;;;25.90;14.23;;;4.60;58.70;;;;;;5018760;28;20290;-68
2022/03/20 02:24:41;;;;;;;24.50;15.87;;;4.60;58.60;;;;;;5017507;28;20199;-68
2022/03/20 02:27:21;;;;;;;24.10;16.07;;;4.60;58.60;;;;;;5017145;28;20235;-68
2022/03/20 02:29:49;;;;;;;21.70;15.47;;;4.60;59.40;;;;;;5023174;28;20179;-68
2022/03/20 02:32:18;;;;;;;19.87;13.33;;;4.50;58.90;;;;;;5009953;28;20320;-67
2022/03/20 02:34:48;;;;;;;21.17;13.83;;;4.50;58.90;;;;;;5022880;28;20193;-67
2022/03/20 02:37:16;;;;;;;23.10;14.00;;;4.40;58.90;;;;;;5006295;28;20386;-67
2022/03/20 02:39:43;;;;;;;25.00;15.20;;;4.40;59.00;;;;;;4989275;28;20319;-67
2022/03/20 02:42:08;;;;;;;20.77;13.37;;;4.40;59.20;;;;;;4993070;28;20200;-66
2022/03/20 02:44:57;;;;;;;18.23;12.47;;;4.30;59.30;;;;;;5011775;28;20962;-67
2022/03/20 02:47:25;;;;;;;23.40;15.50;;;4.40;59.30;;;;;;5016743;28;20286;-67
2022/03/20 02:50:03;;;;;;;23.97;15.70;;;4.40;59.30;;;;;;5017814;28;20196;-67
2022/03/20 02:52:31;;;;;;;25.00;16.30;;;4.30;59.40;;;;;;5007321;28;20258;-66
2022/03/20 02:55:02;;;;;;;23.43;15.53;;;4.30;59.20;;;;;;5012466;28;20363;-65
2022/03/20 02:57:29;;;;;;;23.17;14.87;;;4.30;59.20;;;;;;5011374;28;20308;-66
2022/03/20 02:59:54;;;;;;;17.30;12.00;;;4.20;58.90;;;;;;5018579;28;20203;-65
2022/03/20 03:02:20;;;;;;;20.90;14.03;;;4.30;58.90;;;;;;5013278;28;20204;-65
2022/03/20 03:04:45;;;;;;;20.97;15.37;;;4.30;59.00;;;;;;5019486;28;20196;-64
2022/03/20 03:07:11;;;;;;;25.27;15.17;;;4.20;59.30;;;;;;5005246;28;20216;-65
2022/03/20 03:12:21;;;;;;;25.67;15.47;;;4.40;58.60;;;;;;5009348;28;20218;-65
2022/03/20 03:15:28;;;;;;;19.93;14.77;;;4.40;59.00;;;;;;5014986;28;20203;-65
2022/03/20 03:17:35;;;;;;;20.53;13.30;;;4.30;58.90;;;;;;5008460;28;20220;-64
2022/03/20 03:20:01;;;;;;;29.77;15.27;;;4.30;58.80;;;;;;5008194;28;20203;-64
2022/03/20 03:22:26;;;;;;;25.57;16.33;;;4.40;58.60;;;;;;5007654;28;20258;-64
2022/03/20 03:24:56;;;;;;;29.63;16.23;;;4.30;58.50;;;;;;5010247;28;20685;-65
2022/03/20 03:27:22;;;;;;;18.23;14.03;;;4.20;58.40;;;;;;5005499;28;20737;-65
2022/03/20 03:29:47;;;;;;;16.60;13.73;;;4.20;58.80;;;;;;5021987;28;20192;-66
2022/03/20 03:32:13;;;;;;;24.63;14.83;;;4.10;59.00;;;;;;5018127;28;20784;-64
2022/03/20 03:37:23;;;;;;;22.30;14.67;;;4.30;58.70;;;;;;5005207;28;20258;-65
2022/03/20 03:39:49;;;;;;;22.47;15.73;;;4.20;59.00;;;;;;5022082;28;20183;-65
2022/03/20 03:42:15;;;;;;;21.90;14.70;;;4.20;59.00;;;;;;5016233;28;20282;-65
2022/03/20 03:44:41;;;;;;;20.90;14.23;;;4.20;59.20;;;;;;5016697;28;20904;-65
2022/03/20 03:47:07;;;;;;;22.07;14.30;;;4.20;59.00;;;;;;5019831;28;20679;-66
2022/03/20 03:49:33;;;;;;;24.40;14.97;;;4.20;59.20;;;;;;5018402;28;20214;-66
2022/03/20 03:52:01;;;;;;;20.53;14.40;;;4.10;59.00;;;;;;5013760;28;20196;-65
2022/03/20 03:54:26;;;;;;;21.47;14.80;;;4.00;59.40;;;;;;5019374;28;20195;-66
2022/03/20 03:56:52;;;;;;;20.43;14.83;;;4.00;59.40;;;;;;5004811;28;20246;-66
2022/03/20 03:59:17;;;;;;;22.10;14.70;;;4.10;59.30;;;;;;5013922;28;20196;-66
2022/03/20 04:01:43;;;;;;;25.47;15.63;;;4.00;59.40;;;;;;5014638;28;20191;-66
2022/03/20 04:04:09;;;;;;;25.33;15.03;;;3.90;59.50;;;;;;5017320;28;20205;-65
2022/03/20 04:06:34;;;;;;;25.53;15.83;;;4.00;59.70;;;;;;5006371;28;20583;-66
2022/03/20 04:09:00;;;;;;;19.93;13.23;;;4.00;59.60;;;;;;5013741;28;20222;-67
2022/03/20 04:11:26;;;;;;;25.57;15.00;;;4.00;59.60;;;;;;5019322;28;20711;-66
2022/03/20 04:13:52;;;;;;;22.83;14.40;;;4.00;59.60;;;;;;5013177;28;20214;-66
2022/03/20 04:16:18;;;;;;;20.60;14.90;;;3.80;59.60;;;;;;5006160;28;20188;-66
2022/03/20 04:18:44;;;;;;;20.50;15.43;;;3.80;60.00;;;;;;5009850;28;20607;-68
2022/03/20 04:21:10;;;;;;;23.10;16.23;;;3.80;60.10;;;;;;5017135;28;20254;-66
2022/03/20 04:23:49;;;;;;;20.13;13.97;;;3.90;59.70;;;;;;5017024;28;20207;-65
2022/03/20 04:26:22;;;;;;;20.33;13.73;;;3.80;60.00;;;;;;5005448;28;20289;-66
2022/03/20 04:28:49;;;;;;;21.87;16.50;;;3.70;60.00;;;;;;5012813;28;20196;-66
2022/03/20 04:31:16;;;;;;;25.97;16.73;;;3.70;60.60;;;;;;5017528;28;20191;-66
2022/03/20 04:33:47;;;;;;;27.37;15.50;;;3.70;60.20;;;;;;4989495;28;20199;-66
2022/03/20 04:36:13;;;;;;;17.40;13.43;;;3.70;60.20;;;;;;5012814;28;20203;-65
2022/03/20 04:38:38;;;;;;;23.03;16.03;;;3.70;60.40;;;;;;5006883;28;20210;-65
2022/03/20 04:41:05;;;;;;;22.03;14.03;;;3.70;60.20;;;;;;5012027;28;20218;-65
2022/03/20 04:43:31;;;;;;;22.97;15.53;;;3.60;60.90;;;;;;5009754;28;20210;-65
2022/03/20 04:45:57;;;;;;;28.43;16.47;;;3.60;60.60;;;;;;5011999;28;20218;-65
2022/03/20 04:59:19;;;;;;;24.80;14.73;;;3.50;61.60;;;;;;5013064;28;20272;-65
2022/03/20 05:01:44;;;;;;;23.67;14.73;;;3.60;61.40;;;;;;5009449;28;20203;-65
2022/03/20 05:04:11;;;;;;;25.90;15.97;;;3.50;61.70;;;;;;5012142;28;20195;-66
2022/03/20 05:06:36;;;;;;;24.53;15.93;;;3.40;61.90;;;;;;5015956;28;20227;-66
2022/03/20 05:14:41;;;;;;;22.93;15.93;;;3.20;62.40;;;;;;4952479;28;20202;-65
2022/03/20 05:17:08;;;;;;;24.97;16.63;;;3.30;62.80;;;;;;5014653;28;20357;-65
2022/03/20 05:19:35;;;;;;;25.70;17.27;;;3.20;63.10;;;;;;5013304;28;20199;-65
2022/03/20 05:22:05;;;;;;;21.37;13.90;;;3.20;63.20;;;;;;5014309;28;20277;-65
2022/03/20 05:24:33;;;;;;;18.17;13.60;;;3.20;63.40;;;;;;5015421;28;20280;-67
2022/03/20 05:27:03;;;;;;;25.60;17.07;;;3.20;63.10;;;;;;5015911;28;20262;-65
2022/03/20 05:29:28;;;;;;;35.10;16.93;;;3.00;63.20;;;;;;5004720;28;20644;-66
2022/03/20 05:31:55;;;;;;;18.50;12.43;;;3.00;63.50;;;;;;5009485;28;20223;-67
2022/03/20 05:34:21;;;;;;;24.63;17.10;;;3.10;63.40;;;;;;5016853;28;20635;-65
2022/03/20 05:36:48;;;;;;;28.13;15.57;;;3.10;63.50;;;;;;5006695;28;20216;-66
2022/03/20 05:39:14;;;;;;;22.60;14.67;;;3.00;63.40;;;;;;5019730;28;20191;-65
2022/03/20 05:41:49;;;;;;;23.67;15.77;;;3.00;64.20;;;;;;5020083;28;20206;-65
2022/03/20 05:44:16;;;;;;;21.67;12.60;;;3.00;63.70;;;;;;5017405;28;20222;-64
2022/03/20 05:46:46;;;;;;;28.20;15.90;;;2.90;63.70;;;;;;5007174;28;20674;-65
2022/03/20 05:49:12;;;;;;;23.60;14.20;;;2.80;63.90;;;;;;5015730;28;20294;-67
2022/03/20 05:51:38;;;;;;;29.20;17.20;;;2.90;64.10;;;;;;5015683;28;20566;-64
2022/03/20 05:54:05;;;;;;;24.97;15.53;;;2.90;63.90;;;;;;5021201;28;20191;-65
2022/03/20 05:59:14;;;;;;;22.90;13.73;;;3.10;63.10;;;;;;5019991;28;20199;-66
2022/03/20 06:01:40;;;;;;;27.73;14.63;;;3.10;63.10;;;;;;5009535;28;20574;-65
2022/03/20 06:04:06;;;;;;;27.53;16.53;;;3.00;63.10;;;;;;5021748;28;20867;-67
2022/03/20 06:06:32;;;;;;;18.73;13.97;;;3.10;63.40;;;;;;5011669;28;20658;-66
2022/03/20 06:08:58;;;;;;;23.37;14.43;;;3.10;63.40;;;;;;5018523;28;20323;-66
2022/03/20 06:11:23;;;;;;;24.03;15.13;;;3.10;63.60;;;;;;5021052;28;20278;-67
2022/03/20 06:13:49;;;;;;;22.40;14.27;;;3.00;63.50;;;;;;5010336;28;20211;-66
2022/03/20 06:16:15;;;;;;;19.83;13.87;;;3.10;63.40;;;;;;5008661;28;20292;-68
2022/03/20 06:18:42;;;;;;;24.57;17.60;;;3.00;63.10;;;;;;5006110;28;20208;-69
2022/03/20 06:21:09;;;;;;;25.20;16.97;;;3.10;63.40;;;;;;5007560;28;20550;-67
2022/03/20 06:23:35;;;;;;;19.53;14.83;;;3.10;63.00;;;;;;5013115;28;20730;-67
2022/03/20 06:26:00;;;;;;;27.33;17.77;;;3.10;62.90;;;;;;5007490;28;20246;-67
2022/03/20 06:28:26;;;;;;;25.53;12.63;;;3.20;62.70;;;;;;5008673;28;20694;-67
2022/03/20 06:30:52;;;;;;;27.23;16.93;;;3.10;62.60;;;;;;5014507;28;20192;-67
2022/03/20 06:33:18;;;;;;;29.43;16.47;;;3.20;62.90;;;;;;5014612;28;20574;-67
2022/03/20 06:35:44;;;;;;;24.87;16.30;;;3.20;62.70;;;;;;5015271;28;20203;-66
2022/03/20 06:38:09;;;;;;;22.80;13.90;;;3.20;62.40;;;;;;5008989;28;20203;-66
2022/03/20 06:40:35;;;;;;;24.93;15.97;;;3.20;62.60;;;;;;5013845;28;20318;-67
2022/03/20 06:43:01;;;;;;;23.97;14.70;;;3.30;62.70;;;;;;5006579;28;20538;-66
2022/03/20 06:45:27;;;;;;;25.73;17.17;;;3.20;62.60;;;;;;5023256;28;20222;-66
2022/03/20 06:47:52;;;;;;;28.70;16.27;;;3.30;62.40;;;;;;5006278;28;20207;-66
2022/03/20 06:50:18;;;;;;;25.57;15.50;;;3.30;63.10;;;;;;5019423;28;20223;-66
2022/03/20 06:52:44;;;;;;;20.60;14.73;;;3.30;62.20;;;;;;5005066;28;20571;-66
2022/03/20 06:55:12;;;;;;;27.07;16.90;;;3.40;62.50;;;;;;5023249;28;20199;-66
2022/03/20 06:57:43;;;;;;;27.70;17.33;;;3.30;62.50;;;;;;5014012;28;20204;-66
2022/03/20 07:00:10;;;;;;;23.77;17.27;;;3.40;62.70;;;;;;5021555;28;20195;-66
2022/03/20 07:02:35;;;;;;;28.10;16.23;;;3.40;63.10;;;;;;5014202;28;20230;-66
2022/03/20 07:05:01;;;;;;;23.20;15.73;;;3.50;62.50;;;;;;5009166;28;20662;-66
2022/03/20 07:07:27;;;;;;;23.57;16.80;;;3.60;62.20;;;;;;5005489;28;20227;-66
2022/03/20 07:09:53;;;;;;;25.37;14.43;;;3.50;62.10;;;;;;5008964;28;20197;-66
2022/03/20 07:12:19;;;;;;;31.97;17.90;;;3.60;62.40;;;;;;5007812;28;20368;-66
2022/03/20 07:14:45;;;;;;;23.70;16.10;;;3.50;62.20;;;;;;5019525;28;20184;-66
2022/03/20 07:17:16;;;;;;;23.10;16.40;;;3.60;62.00;;;;;;5016412;28;20205;-66
2022/03/20 07:19:46;;;;;;;24.23;14.00;;;3.60;61.70;;;;;;5008730;28;20207;-67
2022/03/20 07:22:14;;;;;;;22.67;15.70;;;3.70;61.70;;;;;;5018892;28;20278;-65
2022/03/20 07:24:41;;;;;;;26.83;16.37;;;3.70;60.90;;;;;;5014973;28;20306;-66
2022/03/20 07:29:53;;;;;;;21.90;15.40;;;3.90;61.30;;;;;;5013190;28;20887;-66
2022/03/20 07:32:19;;;;;;;33.33;17.03;;;4.00;60.70;;;;;;5022719;28;20294;-66
2022/03/20 07:34:45;;;;;;;26.73;16.27;;;4.00;61.20;;;;;;5006393;28;20290;-70
2022/03/20 07:37:16;;;;;;;28.87;17.83;;;4.10;61.10;;;;;;5005793;28;20231;-70
2022/03/20 07:39:42;;;;;;;24.30;16.80;;;4.20;60.60;;;;;;5010862;28;20632;-69
2022/03/20 07:42:08;;;;;;;26.20;17.37;;;4.40;60.10;;;;;;5021155;28;20188;-69
2022/03/20 07:44:36;;;;;;;27.53;16.43;;;4.50;60.10;;;;;;5015952;28;20686;-69
2022/03/20 07:47:02;;;;;;;20.43;12.40;;;4.60;60.40;;;;;;5025015;28;20265;-68
2022/03/20 07:49:29;;;;;;;25.70;16.83;;;4.60;59.10;;;;;;5009804;28;20353;-68
2022/03/20 07:51:57;;;;;;;18.63;13.53;;;4.60;59.40;;;;;;5015269;28;20203;-68
2022/03/20 07:54:24;;;;;;;22.30;15.43;;;4.60;59.50;;;;;;5004161;28;20254;-68
2022/03/20 07:56:49;;;;;;;27.53;16.67;;;4.70;59.00;;;;;;5017868;28;20319;-68
2022/03/20 07:59:16;;;;;;;20.57;14.87;;;4.70;59.30;;;;;;5006950;28;20676;-69
2022/03/20 08:01:44;;;;;;;24.23;16.50;;;4.80;59.20;;;;;;5007023;28;20200;-69
2022/03/20 08:04:10;;;;;;;23.57;14.83;;;4.90;59.10;;;;;;5006813;28;20231;-70
2022/03/20 08:06:36;;;;;;;30.43;17.13;;;5.10;58.10;;;;;;5012755;28;20720;-68
2022/03/20 08:09:01;;;;;;;22.83;14.97;;;5.10;58.00;;;;;;5004559;28;20206;-68
2022/03/20 08:11:31;;;;;;;20.63;12.93;;;5.10;57.70;;;;;;5022164;28;20298;-67
2022/03/20 08:14:00;;;;;;;23.13;15.87;;;5.10;57.40;;;;;;5003516;28;20610;-70
2022/03/20 08:16:26;;;;;;;22.43;16.33;;;5.20;57.70;;;;;;5007684;28;20291;-71
2022/03/20 08:18:56;;;;;;;27.80;16.90;;;5.30;57.70;;;;;;5004245;28;20295;-70
2022/03/20 08:21:22;;;;;;;26.63;15.83;;;5.40;57.40;;;;;;5005722;28;20250;-69
2022/03/20 08:23:48;;;;;;;22.33;15.30;;;5.50;57.10;;;;;;5006665;28;20657;-69
2022/03/20 08:26:14;;;;;;;25.80;16.30;;;5.40;56.80;;;;;;4998318;28;20224;-68
2022/03/20 08:28:44;;;;;;;23.93;16.10;;;5.50;57.00;;;;;;5007394;28;20196;-68
2022/03/20 08:31:11;;;;;;;29.73;17.37;;;5.60;57.30;;;;;;5012412;28;20253;-66
2022/03/20 08:33:36;;;;;;;26.33;17.47;;;5.70;56.80;;;;;;5014412;28;20195;-66
2022/03/20 08:36:04;;;;;;;24.67;16.00;;;5.60;56.90;;;;;;5007508;28;20196;-68
2022/03/20 08:38:30;;;;;;;26.80;18.50;;;5.70;56.60;;;;;;5011011;28;20207;-67
2022/03/20 08:40:56;;;;;;;19.30;13.47;;;5.80;57.20;;;;;;5013702;28;20303;-67
2022/03/20 08:43:22;;;;;;;23.13;16.23;;;5.90;56.60;;;;;;5011708;28;20644;-66
2022/03/20 08:45:49;;;;;;;24.77;16.07;;;6.00;57.00;;;;;;5002661;28;20209;-67
2022/03/20 08:48:14;;;;;;;23.50;15.30;;;6.30;56.00;;;;;;5016081;28;20208;-66
2022/03/20 08:50:43;;;;;;;26.90;16.90;;;6.40;55.40;;;;;;5010908;28;20222;-69
2022/03/20 08:53:08;;;;;;;23.73;15.83;;;6.50;55.50;;;;;;5012447;28;20607;-68
2022/03/20 08:55:34;;;;;;;25.17;16.53;;;6.50;55.60;;;;;;5009827;28;20195;-67
2022/03/20 08:58:00;;;;;;;27.13;16.57;;;6.50;55.20;;;;;;5010988;28;20234;-69
2022/03/20 09:00:26;;;;;;;25.00;17.27;;;6.60;55.00;;;;;;5012176;28;20204;-68
2022/03/20 09:02:53;;;;;;;20.07;15.30;;;6.60;55.30;;;;;;5012192;28;20203;-67
2022/03/20 09:05:19;;;;;;;25.90;17.03;;;6.60;55.50;;;;;;5021726;28;20673;-65
2022/03/20 09:07:47;;;;;;;25.43;15.73;;;6.70;55.00;;;;;;5020856;28;20214;-66
2022/03/20 09:10:16;;;;;;;24.93;16.17;;;6.70;55.20;;;;;;5012059;28;20202;-68
2022/03/20 09:12:43;;;;;;;27.50;16.70;;;6.70;55.40;;;;;;5020122;28;20729;-67
2022/03/20 09:15:12;;;;;;;27.90;15.70;;;6.80;55.40;;;;;;5015155;28;20282;-68
2022/03/20 09:20:26;;;;;;;25.60;17.20;;;7.10;54.50;;;;;;5011710;28;20203;-67
2022/03/20 09:22:52;;;;;;;25.27;14.73;;;7.30;54.50;;;;;;5011543;28;20172;-70
2022/03/20 09:25:20;;;;;;;25.80;15.27;;;7.30;54.00;;;;;;5006745;28;20251;-68
2022/03/20 09:27:48;;;;;;;24.27;15.80;;;7.40;54.30;;;;;;5019770;28;20188;-64
2022/03/20 09:30:26;;;;;;;20.83;15.07;;;7.40;53.60;;;;;;5020435;28;20991;-65
2022/03/20 09:32:55;;;;;;;20.37;15.67;;;7.60;53.60;;;;;;5021865;28;20210;-67
2022/03/20 09:35:20;;;;;;;23.83;15.97;;;7.60;53.00;;;;;;5012447;28;20241;-78
2022/03/20 09:37:46;;;;;;;24.53;15.50;;;7.70;53.30;;;;;;5013005;28;20199;-88
2022/03/20 09:40:12;;;;;;;25.20;17.60;;;7.70;52.50;;;;;;5012305;28;20635;-88
2022/03/20 09:42:41;;;;;;;23.43;15.60;;;7.80;53.00;;;;;;4992624;28;20292;-79
2022/03/20 09:45:11;;;;;;;20.93;16.53;;;7.90;52.80;;;;;;5023060;28;20311;-82
2022/03/20 09:47:39;;;;;;;20.50;15.20;;;8.00;52.70;;;;;;5011594;28;20219;-82
2022/03/20 09:50:06;;;;;;;20.40;15.17;;;8.00;52.50;;;;;;5016373;28;20547;-72
2022/03/20 09:52:35;;;;;;;24.77;16.83;;;8.20;53.00;;;;;;5018064;28;20716;-72
2022/03/20 09:55:02;;;;;;;23.77;14.83;;;8.20;52.80;;;;;;5023724;28;20196;-72
2022/03/20 09:57:33;;;;;;;24.43;15.97;;;8.20;52.20;;;;;;5016908;28;20196;-74
2022/03/20 10:00:05;;;;;;;20.50;14.80;;;8.50;52.10;;;;;;5018851;28;20999;-69
2022/03/20 10:02:32;;;;;;;24.07;15.90;;;8.50;52.10;;;;;;5016790;28;20677;-72
2022/03/20 10:05:06;;;;;;;23.80;16.63;;;8.60;52.10;;;;;;5019029;28;20678;-73
2022/03/20 10:07:35;;;;;;;22.77;16.40;;;8.60;52.60;;;;;;5017954;28;20256;-71
2022/03/20 10:10:14;;;;;;;25.10;15.97;;;8.80;51.80;;;;;;5017370;28;20200;-72
2022/03/20 10:12:44;;;;;;;27.43;16.63;;;9.00;51.90;;;;;;5014706;28;20205;-74
2022/03/20 10:15:27;;;;;;;21.57;15.00;;;9.00;50.80;;;;;;5017558;28;20189;-75
2022/03/20 10:18:05;;;;;;;23.27;14.43;;;8.90;50.20;;;;;;5015932;28;20184;-71
2022/03/20 10:20:35;;;;;;;19.70;14.37;;;9.00;50.40;;;;;;5016101;28;20256;-75
2022/03/20 10:23:01;;;;;;;21.07;15.77;;;9.10;49.90;;;;;;5018427;28;20185;-71
2022/03/20 10:25:26;;;;;;;22.57;14.93;;;9.30;50.80;;;;;;5015805;28;20220;-72
2022/03/20 10:27:57;;;;;;;19.87;14.17;;;9.40;50.80;;;;;;5016144;28;20205;-71
2022/03/20 10:30:24;;;;;;;21.33;15.53;;;9.60;50.10;;;;;;4995016;28;20225;-71
2022/03/20 10:32:51;;;;;;;22.47;14.40;;;9.40;49.10;;;;;;5013364;28;20184;-74
2022/03/20 10:35:17;;;;;;;18.90;15.40;;;9.40;49.30;;;;;;5018832;28;20265;-72
2022/03/20 10:37:46;;;;;;;21.30;14.83;;;9.60;49.80;;;;;;5004837;28;20250;-74
2022/03/20 10:40:15;;;;;;;24.50;12.87;;;9.70;49.70;;;;;;5017359;28;20285;-73
2022/03/20 10:42:42;;;;;;;19.97;13.30;;;9.90;48.00;;;;;;4997027;28;20671;-75
2022/03/20 10:45:09;;;;;;;20.27;13.83;;;10.00;46.80;;;;;;4997553;28;20737;-73
2022/03/20 10:47:35;;;;;;;20.03;13.23;;;10.00;46.50;;;;;;5014772;28;20243;-76
2022/03/20 10:50:08;;;;;;;20.17;12.67;;;10.20;45.50;;;;;;5013985;28;20189;-72
2022/03/20 10:52:36;;;;;;;16.87;13.27;;;10.30;44.60;;;;;;5013546;28;20209;-73
2022/03/20 10:55:13;;;;;;;17.90;13.27;;;10.40;44.50;;;;;;5000066;28;20194;-75
2022/03/20 10:57:39;;;;;;;18.93;12.83;;;10.50;45.00;;;;;;5015588;28;20211;-75
2022/03/20 11:00:10;;;;;;;22.43;13.83;;;10.70;45.30;;;;;;5016163;28;20589;-73
2022/03/20 11:02:37;;;;;;;16.67;12.10;;;11.00;44.80;;;;;;5014207;28;20213;-73
2022/03/20 11:05:03;;;;;;;16.87;12.33;;;11.00;43.40;;;;;;5019137;28;20201;-72
2022/03/20 11:07:30;;;;;;;17.43;13.47;;;11.10;43.40;;;;;;5011434;28;20838;-70
2022/03/20 11:09:56;;;;;;;17.87;12.40;;;11.00;43.80;;;;;;5012590;28;20198;-70
2022/03/20 11:12:28;;;;;;;18.13;12.77;;;11.10;43.10;;;;;;5013940;28;20206;-68
2022/03/20 11:14:56;;;;;;;17.30;11.20;;;11.10;42.00;;;;;;5019402;28;20688;-68
2022/03/20 11:17:26;;;;;;;17.83;12.13;;;11.10;41.70;;;;;;5012326;28;20215;-69
2022/03/20 11:19:54;;;;;;;13.47;9.60;;;11.30;41.80;;;;;;5009676;28;20211;-68
2022/03/20 11:22:21;;;;;;;15.03;11.30;;;11.30;40.30;;;;;;5009381;28;20241;-68
2022/03/20 11:24:50;;;;;;;14.83;11.53;;;11.70;40.50;;;;;;5009533;28;20232;-68
2022/03/20 11:27:30;;;;;;;14.20;10.70;;;11.70;39.80;;;;;;5016638;28;20302;-67
2022/03/20 11:30:01;;;;;;;15.00;11.33;;;12.00;40.50;;;;;;5018368;28;20186;-67
2022/03/20 11:32:28;;;;;;;17.73;12.53;;;12.10;39.60;;;;;;5013373;28;20199;-71
2022/03/20 11:34:53;;;;;;;14.40;11.37;;;12.20;39.80;;;;;;5013055;28;20249;-67
2022/03/20 11:37:19;;;;;;;15.47;11.13;;;12.30;40.10;;;;;;5013164;28;20207;-69
2022/03/20 11:40:13;;;;;;;16.07;12.50;;;12.40;39.40;;;;;;4997175;28;20692;-68
2022/03/20 11:42:39;;;;;;;16.73;12.33;;;12.40;39.90;;;;;;5011901;28;20236;-69
2022/03/20 11:45:05;;;;;;;17.80;13.83;;;12.50;39.40;;;;;;5012946;28;20198;-67
2022/03/20 11:47:32;;;;;;;16.80;12.37;;;12.50;39.60;;;;;;5013031;28;20281;-69
2022/03/20 11:50:17;;;;;;;13.07;11.67;;;12.70;39.70;;;;;;5014052;28;20195;-70
2022/03/20 11:52:45;;;;;;;19.23;11.87;;;13.00;39.50;;;;;;5017483;28;20964;-70
2022/03/20 11:55:32;;;;;;;14.33;11.43;;;13.00;38.80;;;;;;5021857;28;20209;-69
2022/03/20 11:58:12;;;;;;;19.10;12.70;;;13.00;37.80;;;;;;5005778;28;20305;-69
2022/03/20 12:00:41;;;;;;;16.53;12.33;;;13.00;38.30;;;;;;5016113;28;20210;-69
2022/03/20 12:03:16;;;;;;;17.97;13.20;;;13.20;38.60;;;;;;5017961;28;20190;-71
2022/03/20 12:05:41;;;;;;;14.10;12.30;;;13.40;38.10;;;;;;5011775;28;20219;-71
2022/03/20 12:08:40;;;;;;;15.77;12.97;;;13.40;38.50;;;;;;5024909;28;20182;-73
2022/03/20 12:11:11;;;;;;;17.93;13.83;;;13.40;37.80;;;;;;5008385;28;20835;-69
2022/03/20 12:13:45;;;;;;;16.67;13.63;;;13.60;39.00;;;;;;5013655;28;20200;-72
2022/03/20 12:16:10;;;;;;;22.60;14.13;;;13.60;37.40;;;;;;5016893;28;20186;-70
2022/03/20 12:19:13;;;;;;;16.43;13.80;;;13.60;38.10;;;;;;5011959;28;20195;-70
2022/03/20 12:21:57;;;;;;;17.10;13.33;;;13.70;37.70;;;;;;5014535;28;20281;-70
2022/03/20 12:24:35;;;;;;;18.93;12.63;;;13.60;37.00;;;;;;5011977;28;20230;-75
2022/03/20 12:27:25;;;;;;;17.63;12.87;;;13.80;37.70;;;;;;5013192;28;20322;-70
2022/03/20 12:29:55;;;;;;;17.10;12.70;;;14.00;36.60;;;;;;5015231;28;20211;-69
2022/03/20 12:32:24;;;;;;;16.73;12.57;;;14.20;36.60;;;;;;5018097;28;20190;-69
2022/03/20 12:35:05;;;;;;;12.63;11.07;;;14.40;36.60;;;;;;5013758;28;20215;-71
2022/03/20 12:37:31;;;;;;;17.80;13.63;;;14.60;36.40;;;;;;5017016;28;20184;-72
2022/03/20 12:40:06;;;;;;;18.33;12.30;;;14.20;35.10;;;;;;5013355;28;20286;-71
2022/03/20 12:42:36;;;;;;;14.67;11.07;;;14.00;35.30;;;;;;5013684;28;20187;-69
2022/03/20 12:45:03;;;;;;;14.17;11.67;;;14.00;35.50;;;;;;5014513;28;20199;-70
2022/03/20 12:47:29;;;;;;;15.87;11.93;;;14.10;36.20;;;;;;5012724;28;20274;-67
2022/03/20 12:50:05;;;;;;;18.97;12.70;;;14.40;35.60;;;;;;5013092;28;20214;-69
2022/03/20 12:52:33;;;;;;;16.90;13.03;;;14.50;35.40;;;;;;5020986;28;20202;-71
2022/03/20 12:55:03;;;;;;;15.90;12.07;;;14.80;35.30;;;;;;5012548;28;20215;-67
2022/03/20 12:57:47;;;;;;;15.70;11.87;;;15.00;35.90;;;;;;5018656;28;20200;-68
2022/03/20 13:00:25;;;;;;;18.10;13.30;;;14.90;34.50;;;;;;5011639;28;20199;-67
2022/03/20 13:02:59;;;;;;;16.40;13.03;;;15.10;35.00;;;;;;5021684;28;20202;-68
2022/03/20 13:05:29;;;;;;;14.50;10.33;;;15.60;35.30;;;;;;5011543;28;20211;-68
2022/03/20 13:07:56;;;;;;;15.80;12.27;;;15.60;33.70;;;;;;5009717;28;20192;-68
2022/03/20 13:10:30;;;;;;;15.03;11.57;;;15.80;34.10;;;;;;5009665;28;20314;-68